createdAt,value
2023-05-09T00:01:35.409Z,7.40
2023-05-09T00:04:02.768Z,7.45
2023-05-09T00:06:29.935Z,5.95
2023-05-09T00:08:57.110Z,7.10
2023-05-09T00:11:24.300Z,6.47
2023-05-09T00:13:52.054Z,5.30
2023-05-09T00:16:20.654Z,5.78
2023-05-09T00:18:48.268Z,5.97
2023-05-09T00:21:15.735Z,6.23
2023-05-09T00:23:42.913Z,5.18
2023-05-09T00:26:10.667Z,7.70
2023-05-09T00:28:39.309Z,5.35
2023-05-09T00:31:06.839Z,15.18
2023-05-09T00:33:34.085Z,5.93
2023-05-09T00:36:01.591Z,6.28
2023-05-09T00:38:28.805Z,8.32
2023-05-09T00:40:55.918Z,6.13
2023-05-09T00:43:23.159Z,7.72
2023-05-09T00:45:50.820Z,5.70
2023-05-09T00:48:19.558Z,5.80
2023-05-09T00:50:52.689Z,5.28
2023-05-09T00:53:20.774Z,5.38
2023-05-09T00:55:48.314Z,5.50
2023-05-09T00:58:15.972Z,5.57
2023-05-09T01:00:43.518Z,8.63
2023-05-09T01:03:11.298Z,6.13
2023-05-09T01:05:47.606Z,5.57
2023-05-09T01:08:31.271Z,5.93
2023-05-09T01:11:13.054Z,5.43
2023-05-09T01:13:49.395Z,4.85
2023-05-09T01:16:32.827Z,6.95
2023-05-09T01:19:23.303Z,7.30
2023-05-09T01:21:51.233Z,7.72
2023-05-09T01:24:21.344Z,8.10
2023-05-09T01:27:12.986Z,5.53
2023-05-09T01:29:48.458Z,5.78
2023-05-09T01:32:24.350Z,6.32
2023-05-09T01:34:54.444Z,5.85
2023-05-09T01:37:35.710Z,6.13
2023-05-09T01:40:14.716Z,5.80
2023-05-09T01:42:47.658Z,6.20
2023-05-09T01:45:16.268Z,5.75
2023-05-09T01:47:44.115Z,7.07
2023-05-09T01:50:12.766Z,5.00
2023-05-09T01:52:42.533Z,6.18
2023-05-09T01:55:11.735Z,5.80
2023-05-09T01:57:40.461Z,6.45
2023-05-09T02:00:10.230Z,5.53
2023-05-09T02:02:41.088Z,6.63
2023-05-09T02:05:11.289Z,6.05
2023-05-09T02:07:41.415Z,5.25
2023-05-09T02:10:10.189Z,5.47
2023-05-09T02:12:38.494Z,6.28
2023-05-09T02:15:06.794Z,5.87
2023-05-09T02:17:34.258Z,7.07
2023-05-09T02:20:01.621Z,7.30
2023-05-09T02:22:29.037Z,5.70
2023-05-09T02:24:57.107Z,5.82
2023-05-09T02:27:24.830Z,7.47
2023-05-09T02:29:57.558Z,7.18
2023-05-09T02:32:28.888Z,5.75
2023-05-09T02:34:58.936Z,6.40
2023-05-09T02:37:26.924Z,6.35
2023-05-09T02:39:55.005Z,7.07
2023-05-09T02:42:25.405Z,6.63
2023-05-09T02:44:53.850Z,6.80
2023-05-09T02:47:21.607Z,6.10
2023-05-09T02:49:48.833Z,5.78
2023-05-09T02:52:16.612Z,5.87
2023-05-09T02:54:43.883Z,5.85
2023-05-09T02:57:11.144Z,6.55
2023-05-09T02:59:38.381Z,6.63
2023-05-09T03:02:05.518Z,6.80
2023-05-09T03:04:32.755Z,6.20
2023-05-09T03:07:00.319Z,6.70
2023-05-09T03:09:31.801Z,6.35
2023-05-09T03:11:59.069Z,5.85
2023-05-09T03:14:26.320Z,5.70
2023-05-09T03:16:55.365Z,6.27
2023-05-09T03:19:30.511Z,8.27
2023-05-09T03:21:57.802Z,8.70
2023-05-09T03:24:26.700Z,6.13
2023-05-09T03:26:54.608Z,5.93
2023-05-09T03:29:22.523Z,5.50
2023-05-09T03:31:50.068Z,4.10
2023-05-09T03:34:17.275Z,11.23
2023-05-09T03:36:45.305Z,8.18
2023-05-09T03:39:14.803Z,9.13
2023-05-09T03:41:45.336Z,7.80
2023-05-09T03:44:13.175Z,7.60
2023-05-09T03:46:40.633Z,7.85
2023-05-09T03:49:08.246Z,6.53
2023-05-09T03:51:36.762Z,5.72
2023-05-09T03:54:06.698Z,7.83
2023-05-09T03:56:35.018Z,6.25
2023-05-09T03:59:02.200Z,8.23
2023-05-09T04:01:30.664Z,6.72
2023-05-09T04:04:00.390Z,6.20
2023-05-09T04:06:30.142Z,7.67
2023-05-09T04:08:58.316Z,7.00
2023-05-09T04:11:25.757Z,8.15
2023-05-09T04:13:54.752Z,6.50
2023-05-09T04:16:31.798Z,9.68
2023-05-09T04:18:59.568Z,6.17
2023-05-09T04:21:26.799Z,6.45
2023-05-09T04:23:56.961Z,5.72
2023-05-09T04:26:31.537Z,7.78
2023-05-09T04:28:59.725Z,5.82
2023-05-09T04:31:27.123Z,8.87
2023-05-09T04:33:54.469Z,5.55
2023-05-09T04:36:23.099Z,5.88
2023-05-09T04:38:50.465Z,7.07
2023-05-09T04:41:23.041Z,5.80
2023-05-09T04:43:50.723Z,8.33
2023-05-09T04:46:18.228Z,7.60
2023-05-09T04:48:45.463Z,7.93
2023-05-09T04:51:12.554Z,7.30
2023-05-09T04:53:39.710Z,13.90
2023-05-09T04:56:07.300Z,8.60
2023-05-09T04:58:38.529Z,6.30
2023-05-09T05:01:09.750Z,6.25
2023-05-09T05:03:37.223Z,6.43
2023-05-09T05:06:05.466Z,6.47
2023-05-09T05:08:33.144Z,7.93
2023-05-09T05:11:00.461Z,8.10
2023-05-09T05:13:28.372Z,8.55
2023-05-09T05:15:59.065Z,10.75
2023-05-09T05:18:26.428Z,7.30
2023-05-09T05:20:54.455Z,6.07
2023-05-09T05:23:22.035Z,8.18
2023-05-09T05:25:52.733Z,8.07
2023-05-09T05:28:20.227Z,7.22
2023-05-09T05:30:47.851Z,6.55
2023-05-09T05:33:15.088Z,6.23
2023-05-09T05:35:42.247Z,8.00
2023-05-09T05:38:09.448Z,5.85
2023-05-09T05:40:37.151Z,6.45
2023-05-09T05:43:06.275Z,6.90
2023-05-09T05:45:36.025Z,7.63
2023-05-09T05:48:05.742Z,6.13
2023-05-09T05:50:33.512Z,5.80
2023-05-09T05:53:01.062Z,5.97
2023-05-09T05:55:28.365Z,7.05
2023-05-09T05:57:55.634Z,5.93
2023-05-09T06:00:22.974Z,5.38
2023-05-09T06:02:57.173Z,6.90
2023-05-09T06:05:34.029Z,5.38
2023-05-09T06:08:01.354Z,6.40
2023-05-09T06:10:28.661Z,6.20
2023-05-09T06:12:56.092Z,6.65
2023-05-09T06:15:23.969Z,6.32
2023-05-09T06:17:51.540Z,6.05
2023-05-09T06:20:18.775Z,5.55
2023-05-09T06:22:46.431Z,7.13
2023-05-09T06:25:13.837Z,5.80
2023-05-09T06:27:42.336Z,6.25
2023-05-09T06:30:23.971Z,6.55
2023-05-09T06:32:53.917Z,6.45
2023-05-09T06:35:21.220Z,6.10
2023-05-09T06:37:49.176Z,6.82
2023-05-09T06:40:17.095Z,8.13
2023-05-09T06:42:45.078Z,6.40
2023-05-09T06:45:12.699Z,6.25
2023-05-09T06:47:40.115Z,9.03
2023-05-09T06:50:08.166Z,6.60
2023-05-09T06:52:35.978Z,6.05
2023-05-09T06:55:03.847Z,7.72
2023-05-09T06:57:31.636Z,8.27
2023-05-09T06:59:58.800Z,5.80
2023-05-09T07:02:26.070Z,6.80
2023-05-09T07:04:53.318Z,6.18
2023-05-09T07:07:20.682Z,6.03
2023-05-09T07:09:50.732Z,5.70
2023-05-09T07:12:20.146Z,6.40
2023-05-09T07:14:47.352Z,6.55
2023-05-09T07:17:23.052Z,5.90
2023-05-09T07:19:51.986Z,6.20
2023-05-09T07:22:19.420Z,5.78
2023-05-09T07:24:46.796Z,6.80
2023-05-09T07:27:14.041Z,6.25
2023-05-09T07:29:41.350Z,6.65
2023-05-09T07:32:08.804Z,7.32
2023-05-09T07:34:36.629Z,10.48
2023-05-09T07:37:03.828Z,6.77
2023-05-09T07:39:31.040Z,7.28
2023-05-09T07:41:58.239Z,6.68
2023-05-09T07:44:25.801Z,6.18
2023-05-09T07:46:55.335Z,6.97
2023-05-09T07:49:22.579Z,6.97
2023-05-09T07:51:49.755Z,7.07
2023-05-09T07:54:17.224Z,7.82
2023-05-09T07:56:44.364Z,6.82
2023-05-09T07:59:12.322Z,6.15
2023-05-09T08:01:39.554Z,6.80
2023-05-09T08:04:09.165Z,6.43
2023-05-09T08:06:36.835Z,6.10
2023-05-09T08:09:04.858Z,6.75
2023-05-09T08:11:36.016Z,6.13
2023-05-09T08:14:03.396Z,6.53
2023-05-09T08:16:30.824Z,6.40
2023-05-09T08:18:58.186Z,8.27
2023-05-09T08:21:25.649Z,5.80
2023-05-09T08:23:53.202Z,6.63
2023-05-09T08:26:22.598Z,5.97
2023-05-09T08:28:49.780Z,7.30
2023-05-09T08:31:17.004Z,5.65
2023-05-09T08:33:44.249Z,7.97
2023-05-09T08:36:11.496Z,5.95
2023-05-09T08:38:40.521Z,5.13
2023-05-09T08:41:07.774Z,5.82
2023-05-09T08:43:35.524Z,5.97
2023-05-09T08:46:10.650Z,6.25
2023-05-09T08:48:38.941Z,5.95
2023-05-09T08:51:07.069Z,7.17
2023-05-09T08:53:34.668Z,7.72
2023-05-09T08:56:04.027Z,6.10
2023-05-09T08:58:32.103Z,5.90
2023-05-09T09:01:00.207Z,6.50
2023-05-09T09:03:27.715Z,6.93
2023-05-09T09:05:56.316Z,5.85
2023-05-09T09:08:24.473Z,8.65
2023-05-09T09:10:52.011Z,5.10
2023-05-09T09:13:20.586Z,6.90
2023-05-09T09:15:51.545Z,5.53
2023-05-09T09:18:23.587Z,6.50
2023-05-09T09:20:58.361Z,5.82
2023-05-09T09:23:27.212Z,6.47
2023-05-09T09:26:04.481Z,6.00
2023-05-09T09:28:32.613Z,5.37
2023-05-09T09:30:59.763Z,6.80
2023-05-09T09:33:28.702Z,5.20
2023-05-09T09:35:57.125Z,4.97
2023-05-09T09:38:24.871Z,6.35
2023-05-09T09:40:52.031Z,5.57
2023-05-09T09:43:19.389Z,5.85
2023-05-09T09:45:53.338Z,5.97
2023-05-09T09:48:30.791Z,5.30
2023-05-09T09:51:02.172Z,5.85
2023-05-09T09:53:30.675Z,6.33
2023-05-09T09:55:58.678Z,6.20
2023-05-09T09:58:26.542Z,4.00
2023-05-09T10:01:16.881Z,3.30
2023-05-09T10:03:46.218Z,4.43
2023-05-09T10:06:16.026Z,4.70
2023-05-09T10:08:46.844Z,6.20
2023-05-09T10:11:14.449Z,4.70
2023-05-09T10:13:42.548Z,5.30
2023-05-09T10:16:10.554Z,4.78
2023-05-09T10:18:39.716Z,5.83
2023-05-09T10:21:09.581Z,5.22
2023-05-09T10:23:38.444Z,3.83
2023-05-09T10:26:17.817Z,4.72
2023-05-09T10:28:48.199Z,4.25
2023-05-09T10:31:22.277Z,3.37
2023-05-09T10:33:51.037Z,5.65
2023-05-09T10:36:26.223Z,5.07
2023-05-09T10:38:54.990Z,3.58
2023-05-09T10:41:23.707Z,3.70
2023-05-09T10:43:51.292Z,3.13
2023-05-09T10:46:18.750Z,6.20
2023-05-09T10:48:48.036Z,3.28
2023-05-09T10:51:17.600Z,7.03
2023-05-09T10:53:47.047Z,4.22
2023-05-09T10:56:26.431Z,4.63
2023-05-09T10:58:54.730Z,4.13
2023-05-09T11:01:34.941Z,5.90
2023-05-09T11:04:08.693Z,4.30
2023-05-09T11:06:42.044Z,3.78
2023-05-09T11:09:35.797Z,3.20
2023-05-09T11:12:05.983Z,3.78
2023-05-09T11:14:35.994Z,3.70
2023-05-09T11:17:05.183Z,3.17
2023-05-09T11:19:36.918Z,4.22
2023-05-09T11:22:16.518Z,3.43
2023-05-09T11:25:07.454Z,4.00
2023-05-09T11:27:52.163Z,4.55
2023-05-09T11:30:20.724Z,3.63
2023-05-09T11:32:52.148Z,4.38
2023-05-09T11:35:21.632Z,4.30
2023-05-09T11:38:06.638Z,5.43
2023-05-09T11:40:37.456Z,5.13
2023-05-09T11:43:07.064Z,3.45
2023-05-09T11:45:34.817Z,4.55
2023-05-09T11:48:09.028Z,4.00
2023-05-09T11:50:36.231Z,3.30
2023-05-09T11:53:03.339Z,3.80
2023-05-09T11:55:31.572Z,3.15
2023-05-09T11:57:59.025Z,3.85
2023-05-09T12:00:26.538Z,4.03
2023-05-09T12:02:54.223Z,3.53
2023-05-09T12:05:22.856Z,3.13
2023-05-09T12:07:50.975Z,3.50
2023-05-09T12:10:25.531Z,3.50
2023-05-09T12:12:55.693Z,5.27
2023-05-09T12:15:23.149Z,4.63
2023-05-09T12:18:08.155Z,5.50
2023-05-09T12:20:41.494Z,3.25
2023-05-09T12:23:11.087Z,3.22
2023-05-09T12:25:38.623Z,4.67
2023-05-09T12:28:06.104Z,2.95
2023-05-09T12:30:33.548Z,3.30
2023-05-09T12:33:01.006Z,5.13
2023-05-09T12:35:28.282Z,3.63
2023-05-09T12:37:57.860Z,4.13
2023-05-09T12:40:25.477Z,3.10
2023-05-09T12:42:54.406Z,4.68
2023-05-09T12:45:21.661Z,2.67
2023-05-09T12:47:52.367Z,2.58
2023-05-09T12:50:19.770Z,3.00
2023-05-09T12:53:01.865Z,2.85
2023-05-09T12:55:31.824Z,3.33
2023-05-09T12:58:01.508Z,3.42
2023-05-09T13:00:29.210Z,3.28
2023-05-09T13:02:57.135Z,2.83
2023-05-09T13:05:24.690Z,3.70
2023-05-09T13:07:56.225Z,3.03
2023-05-09T13:10:26.190Z,3.28
2023-05-09T13:12:53.766Z,3.17
2023-05-09T13:15:26.785Z,3.10
2023-05-09T13:17:54.386Z,4.45
2023-05-09T13:20:21.638Z,3.20
2023-05-09T13:22:48.983Z,3.75
2023-05-09T13:25:16.926Z,4.38
2023-05-09T13:27:44.150Z,4.57
2023-05-09T13:30:12.724Z,4.47
2023-05-09T13:32:40.236Z,6.10
2023-05-09T13:35:08.052Z,5.72
2023-05-09T13:37:35.707Z,4.55
2023-05-09T13:40:04.315Z,2.77
2023-05-09T13:42:33.402Z,3.65
2023-05-09T13:45:00.939Z,3.10
2023-05-09T13:47:28.378Z,4.13
2023-05-09T13:49:55.571Z,3.08
2023-05-09T13:52:23.223Z,3.13
2023-05-09T13:54:50.441Z,5.70
2023-05-09T13:57:17.706Z,3.88
2023-05-09T13:59:44.809Z,3.03
2023-05-09T14:02:12.893Z,3.70
2023-05-09T14:04:41.619Z,3.47
2023-05-09T14:07:11.199Z,3.30
2023-05-09T14:09:40.221Z,3.28
2023-05-09T14:12:07.951Z,2.50
2023-05-09T14:14:35.311Z,2.97
2023-05-09T14:17:02.867Z,2.27
2023-05-09T14:19:33.023Z,3.38
2023-05-09T14:22:00.269Z,4.22
2023-05-09T14:24:30.808Z,2.67
2023-05-09T14:26:58.010Z,2.70
2023-05-09T14:29:25.227Z,3.40
2023-05-09T14:31:52.535Z,3.28
2023-05-09T14:34:19.798Z,4.70
2023-05-09T14:36:47.021Z,3.03
2023-05-09T14:39:14.261Z,4.43
2023-05-09T14:41:41.545Z,3.20
2023-05-09T14:44:08.699Z,3.25
2023-05-09T14:46:37.001Z,3.08
2023-05-09T14:49:04.368Z,3.78
2023-05-09T14:51:33.302Z,4.93
2023-05-09T14:54:03.118Z,3.57
2023-05-09T14:56:31.593Z,4.18
2023-05-09T14:58:58.733Z,4.28
2023-05-09T15:01:26.146Z,3.10
2023-05-09T15:03:53.459Z,3.67
2023-05-09T15:06:20.790Z,4.73
2023-05-09T15:08:48.000Z,3.13
2023-05-09T15:11:15.276Z,2.80
2023-05-09T15:13:42.419Z,4.20
2023-05-09T15:16:10.120Z,2.25
2023-05-09T15:18:37.365Z,2.67
2023-05-09T15:21:04.890Z,3.85
2023-05-09T15:23:32.186Z,4.25
2023-05-09T15:25:59.396Z,4.90
2023-05-09T15:28:26.570Z,4.40
2023-05-09T15:30:53.908Z,2.93
2023-05-09T15:33:21.192Z,4.63
2023-05-09T15:35:50.149Z,3.42
2023-05-09T15:38:17.426Z,3.60
2023-05-09T15:40:44.641Z,3.15
2023-05-09T15:43:12.982Z,3.67
2023-05-09T15:45:45.494Z,5.18
2023-05-09T15:48:14.261Z,4.60
2023-05-09T15:50:44.986Z,3.55
2023-05-09T15:53:12.184Z,3.47
2023-05-09T15:55:39.361Z,3.23
2023-05-09T15:58:07.489Z,3.83
2023-05-09T16:00:34.607Z,3.55
2023-05-09T16:03:01.946Z,3.15
2023-05-09T16:05:29.254Z,4.53
2023-05-09T16:07:56.499Z,3.30
2023-05-09T16:10:23.643Z,3.45
2023-05-09T16:12:51.175Z,3.95
2023-05-09T16:15:18.426Z,3.35
2023-05-09T16:17:45.610Z,3.90
2023-05-09T16:20:14.271Z,3.23
2023-05-09T16:22:42.163Z,3.70
2023-05-09T16:25:09.632Z,6.15
2023-05-09T16:27:36.959Z,4.38
2023-05-09T16:30:05.752Z,5.10
2023-05-09T16:32:32.941Z,4.17
2023-05-09T16:35:00.141Z,3.35
2023-05-09T16:37:29.833Z,3.60
2023-05-09T16:39:57.868Z,4.47
2023-05-09T16:42:25.519Z,3.80
2023-05-09T16:44:52.697Z,3.10
2023-05-09T16:47:19.920Z,6.15
2023-05-09T16:49:47.051Z,3.33
2023-05-09T16:52:14.343Z,3.88
2023-05-09T16:54:41.551Z,3.05
2023-05-09T16:57:08.864Z,4.60
2023-05-09T16:59:37.217Z,3.03
2023-05-09T17:02:04.708Z,5.97
2023-05-09T17:04:32.074Z,3.65
2023-05-09T17:06:59.314Z,3.10
2023-05-09T17:09:26.611Z,4.83
2023-05-09T17:11:53.805Z,3.92
2023-05-09T17:14:20.982Z,4.97
2023-05-09T17:16:48.234Z,3.03
2023-05-09T17:19:16.515Z,3.83
2023-05-09T17:21:44.341Z,3.87
2023-05-09T17:24:11.501Z,5.35
2023-05-09T17:26:39.133Z,2.90
2023-05-09T17:29:06.297Z,4.30
2023-05-09T17:31:33.533Z,5.38
2023-05-09T17:34:01.454Z,4.37
2023-05-09T17:36:28.762Z,5.97
2023-05-09T17:38:56.138Z,3.78
2023-05-09T17:41:23.354Z,4.47
2023-05-09T17:43:53.882Z,7.35
2023-05-09T17:46:21.153Z,3.97
2023-05-09T17:48:48.619Z,6.07
2023-05-09T17:51:16.967Z,5.15
2023-05-09T17:53:44.206Z,6.78
2023-05-09T17:56:11.408Z,4.82
2023-05-09T17:58:38.609Z,4.40
2023-05-09T18:01:05.930Z,5.32
2023-05-09T18:03:33.274Z,6.40
2023-05-09T18:06:01.657Z,5.97
2023-05-09T18:08:29.807Z,5.55
2023-05-09T18:10:57.809Z,5.63
2023-05-09T18:13:25.117Z,4.30
2023-05-09T18:15:54.899Z,4.82
2023-05-09T18:18:23.046Z,4.07
2023-05-09T18:20:50.397Z,5.57
2023-05-09T18:23:17.548Z,4.97
2023-05-09T18:25:44.766Z,5.90
2023-05-09T18:28:11.952Z,5.68
2023-05-09T18:30:39.494Z,4.28
2023-05-09T18:33:07.175Z,4.60
2023-05-09T18:35:34.471Z,7.67
2023-05-09T18:38:01.959Z,4.57
2023-05-09T18:40:29.285Z,4.57
2023-05-09T18:42:56.432Z,4.78
2023-05-09T18:45:23.775Z,5.72
2023-05-09T18:47:51.132Z,7.60
2023-05-09T18:50:19.114Z,6.32
2023-05-09T18:52:46.414Z,5.97
2023-05-09T18:55:14.841Z,6.00
2023-05-09T18:57:42.081Z,5.70
2023-05-09T19:00:09.673Z,5.40
2023-05-09T19:02:36.942Z,6.50
2023-05-09T19:05:08.580Z,6.00
2023-05-09T19:07:35.811Z,7.38
2023-05-09T19:10:08.219Z,7.22
2023-05-09T19:12:35.477Z,7.27
2023-05-09T19:15:03.471Z,10.10
2023-05-09T19:17:30.724Z,6.65
2023-05-09T19:19:58.009Z,6.65
2023-05-09T19:22:25.306Z,6.07
2023-05-09T19:24:52.511Z,6.57
2023-05-09T19:27:19.705Z,8.07
2023-05-09T19:29:49.263Z,8.15
2023-05-09T19:32:18.048Z,8.88
2023-05-09T19:34:45.223Z,6.10
2023-05-09T19:37:12.449Z,6.40
2023-05-09T19:39:39.586Z,7.30
2023-05-09T19:42:08.008Z,7.70
2023-05-09T19:44:35.306Z,7.50
2023-05-09T19:47:05.265Z,11.95
2023-05-09T19:49:32.763Z,10.20
2023-05-09T19:51:59.919Z,10.88
2023-05-09T19:54:27.241Z,6.53
2023-05-09T19:56:54.570Z,6.60
2023-05-09T19:59:21.756Z,6.32
2023-05-09T20:01:49.110Z,6.83
2023-05-09T20:04:16.558Z,5.30
2023-05-09T20:06:43.891Z,6.32
2023-05-09T20:09:11.304Z,5.22
2023-05-09T20:11:38.457Z,6.68
2023-05-09T20:14:05.635Z,6.97
2023-05-09T20:16:33.232Z,5.40
2023-05-09T20:19:00.689Z,4.57
2023-05-09T20:21:27.916Z,4.82
2023-05-09T20:23:55.067Z,8.20
2023-05-09T20:26:24.519Z,5.33
2023-05-09T20:28:54.519Z,4.05
2023-05-09T20:31:21.738Z,5.00
2023-05-09T20:33:48.984Z,4.25
2023-05-09T20:36:16.173Z,6.70
2023-05-09T20:38:43.532Z,4.37
2023-05-09T20:41:10.711Z,4.40
2023-05-09T20:43:38.366Z,4.50
2023-05-09T20:46:05.557Z,4.47
2023-05-09T20:48:33.189Z,5.00
2023-05-09T20:51:00.584Z,5.83
2023-05-09T20:53:31.243Z,6.35
2023-05-09T20:55:59.838Z,4.38
2023-05-09T20:58:32.277Z,4.63
2023-05-09T21:00:59.612Z,6.25
2023-05-09T21:03:26.979Z,5.10
2023-05-09T21:05:54.326Z,4.05
2023-05-09T21:08:21.535Z,4.60
2023-05-09T21:10:51.709Z,5.60
2023-05-09T21:13:18.971Z,5.43
2023-05-09T21:15:50.108Z,4.53
2023-05-09T21:18:17.509Z,4.10
2023-05-09T21:20:45.309Z,4.78
2023-05-09T21:23:12.473Z,4.93
2023-05-09T21:25:39.793Z,5.20
2023-05-09T21:28:06.963Z,5.37
2023-05-09T21:30:34.114Z,4.78
2023-05-09T21:33:01.940Z,4.70
2023-05-09T21:35:29.206Z,4.93
2023-05-09T21:37:56.414Z,7.80
2023-05-09T21:40:23.747Z,6.60
2023-05-09T21:42:50.875Z,5.85
2023-05-09T21:45:18.480Z,5.78
2023-05-09T21:47:45.945Z,7.95
2023-05-09T21:50:13.927Z,7.30
2023-05-09T21:52:41.327Z,4.77
2023-05-09T21:55:09.152Z,4.63
2023-05-09T21:57:36.332Z,6.18
2023-05-09T22:00:05.634Z,5.85
2023-05-09T22:02:42.562Z,6.05
2023-05-09T22:05:10.553Z,6.13
2023-05-09T22:07:37.705Z,7.50
2023-05-09T22:10:05.610Z,6.18
2023-05-09T22:12:32.964Z,5.53
2023-05-09T22:15:00.172Z,6.88
2023-05-09T22:17:27.378Z,7.40
2023-05-09T22:19:54.589Z,6.55
2023-05-09T22:22:21.839Z,6.97
2023-05-09T22:24:49.800Z,7.28
2023-05-09T22:27:16.978Z,5.88
2023-05-09T22:29:44.230Z,8.53
2023-05-09T22:32:11.634Z,6.40
2023-05-09T22:34:38.934Z,7.28
2023-05-09T22:37:06.238Z,7.03
2023-05-09T22:39:33.431Z,7.75
2023-05-09T22:42:02.493Z,8.80
2023-05-09T22:44:29.735Z,8.93
2023-05-09T22:46:56.951Z,6.60
2023-05-09T22:49:24.289Z,8.93
2023-05-09T22:51:51.457Z,8.10
2023-05-09T22:54:21.692Z,7.57
2023-05-09T22:56:49.039Z,7.90
2023-05-09T22:59:16.329Z,9.07
2023-05-09T23:01:43.697Z,10.93
2023-05-09T23:04:10.957Z,11.52
2023-05-09T23:06:38.139Z,12.27
2023-05-09T23:09:05.328Z,13.13
2023-05-09T23:11:32.499Z,10.57
2023-05-09T23:13:59.828Z,8.50
2023-05-09T23:16:27.001Z,10.57
2023-05-09T23:18:54.230Z,10.97
2023-05-09T23:21:21.463Z,9.73
2023-05-09T23:23:48.691Z,11.60
2023-05-09T23:26:15.840Z,10.52
2023-05-09T23:28:43.057Z,9.77
2023-05-09T23:31:10.460Z,11.27
2023-05-09T23:33:37.691Z,12.55
2023-05-09T23:36:05.301Z,11.13
2023-05-09T23:38:32.463Z,10.73
2023-05-09T23:41:01.077Z,8.98
2023-05-09T23:43:28.884Z,10.43
2023-05-09T23:45:59.376Z,10.55
2023-05-09T23:48:26.869Z,11.27
2023-05-09T23:50:54.027Z,11.15
2023-05-09T23:53:21.418Z,10.90
2023-05-09T23:55:48.737Z,12.70
2023-05-09T23:58:16.486Z,11.48
